sensor_id;sensor_type;location;lat;lon;timestamp;P1;durP1;ratioP1;P2;durP2;ratioP2
81056;SDS011;70563;50.084;14.468;2023-12-20T00:01:16;4.70;;;2.47;;
81056;SDS011;70563;50.084;14.468;2023-12-20T00:03:41;3.30;;;2.30;;
81056;SDS011;70563;50.084;14.468;2023-12-20T00:06:07;3.53;;;2.55;;
81056;SDS011;70563;50.084;14.468;2023-12-20T00:08:32;4.75;;;2.60;;
81056;SDS011;70563;50.084;14.468;2023-12-20T00:10:58;4.85;;;2.80;;
81056;SDS011;70563;50.084;14.468;2023-12-20T00:13:23;5.60;;;3.05;;
81056;SDS011;70563;50.084;14.468;2023-12-20T00:15:48;4.07;;;2.53;;
81056;SDS011;70563;50.084;14.468;2023-12-20T00:18:14;4.72;;;2.83;;
81056;SDS011;70563;50.084;14.468;2023-12-20T00:20:39;5.25;;;2.72;;
81056;SDS011;70563;50.084;14.468;2023-12-20T00:23:04;4.65;;;3.08;;
81056;SDS011;70563;50.084;14.468;2023-12-20T00:25:30;2.75;;;1.83;;
81056;SDS011;70563;50.084;14.468;2023-12-20T00:27:55;3.50;;;2.65;;
81056;SDS011;70563;50.084;14.468;2023-12-20T00:30:21;5.25;;;2.70;;
81056;SDS011;70563;50.084;14.468;2023-12-20T00:32:46;5.75;;;2.65;;
81056;SDS011;70563;50.084;14.468;2023-12-20T00:35:14;7.15;;;3.00;;
81056;SDS011;70563;50.084;14.468;2023-12-20T00:37:40;4.28;;;2.90;;
81056;SDS011;70563;50.084;14.468;2023-12-20T00:40:05;3.92;;;3.33;;
81056;SDS011;70563;50.084;14.468;2023-12-20T00:42:31;5.15;;;3.35;;
81056;SDS011;70563;50.084;14.468;2023-12-20T00:44:58;4.40;;;3.00;;
81056;SDS011;70563;50.084;14.468;2023-12-20T00:47:24;4.05;;;3.05;;
81056;SDS011;70563;50.084;14.468;2023-12-20T00:49:49;5.57;;;2.42;;
81056;SDS011;70563;50.084;14.468;2023-12-20T00:52:15;3.92;;;2.97;;
81056;SDS011;70563;50.084;14.468;2023-12-20T00:54:42;4.65;;;3.47;;
81056;SDS011;70563;50.084;14.468;2023-12-20T00:57:07;5.35;;;3.28;;
81056;SDS011;70563;50.084;14.468;2023-12-20T00:59:32;3.97;;;2.58;;
81056;SDS011;70563;50.084;14.468;2023-12-20T01:01:58;6.95;;;3.53;;
81056;SDS011;70563;50.084;14.468;2023-12-20T01:04:23;3.40;;;2.20;;
81056;SDS011;70563;50.084;14.468;2023-12-20T01:06:48;5.40;;;3.08;;
81056;SDS011;70563;50.084;14.468;2023-12-20T01:09:14;4.57;;;3.10;;
81056;SDS011;70563;50.084;14.468;2023-12-20T01:11:39;3.83;;;2.90;;
81056;SDS011;70563;50.084;14.468;2023-12-20T01:14:04;9.43;;;4.18;;
81056;SDS011;70563;50.084;14.468;2023-12-20T01:16:30;4.43;;;2.88;;
81056;SDS011;70563;50.084;14.468;2023-12-20T01:18:55;4.97;;;3.65;;
81056;SDS011;70563;50.084;14.468;2023-12-20T01:21:21;5.68;;;3.33;;
81056;SDS011;70563;50.084;14.468;2023-12-20T01:23:46;4.13;;;2.00;;
81056;SDS011;70563;50.084;14.468;2023-12-20T01:26:12;4.55;;;2.88;;
81056;SDS011;70563;50.084;14.468;2023-12-20T01:28:38;6.45;;;3.78;;
81056;SDS011;70563;50.084;14.468;2023-12-20T01:31:03;4.75;;;2.92;;
81056;SDS011;70563;50.084;14.468;2023-12-20T01:33:29;7.03;;;3.70;;
81056;SDS011;70563;50.084;14.468;2023-12-20T01:35:54;5.68;;;3.50;;
81056;SDS011;70563;50.084;14.468;2023-12-20T01:38:19;5.05;;;3.08;;
81056;SDS011;70563;50.084;14.468;2023-12-20T01:40:45;5.13;;;3.38;;
81056;SDS011;70563;50.084;14.468;2023-12-20T01:43:10;5.35;;;3.63;;
81056;SDS011;70563;50.084;14.468;2023-12-20T01:45:37;6.80;;;4.05;;
81056;SDS011;70563;50.084;14.468;2023-12-20T01:48:03;8.00;;;4.38;;
81056;SDS011;70563;50.084;14.468;2023-12-20T01:50:30;7.82;;;3.80;;
81056;SDS011;70563;50.084;14.468;2023-12-20T01:52:57;5.43;;;3.42;;
81056;SDS011;70563;50.084;14.468;2023-12-20T01:55:24;5.00;;;3.90;;
81056;SDS011;70563;50.084;14.468;2023-12-20T01:57:52;5.57;;;3.75;;
81056;SDS011;70563;50.084;14.468;2023-12-20T02:00:18;6.20;;;3.67;;
81056;SDS011;70563;50.084;14.468;2023-12-20T02:02:48;9.10;;;4.68;;
81056;SDS011;70563;50.084;14.468;2023-12-20T02:05:15;8.27;;;4.70;;
81056;SDS011;70563;50.084;14.468;2023-12-20T02:07:42;8.07;;;4.35;;
81056;SDS011;70563;50.084;14.468;2023-12-20T02:10:07;6.63;;;4.35;;
81056;SDS011;70563;50.084;14.468;2023-12-20T02:12:33;6.03;;;3.67;;
81056;SDS011;70563;50.084;14.468;2023-12-20T02:14:58;6.93;;;3.78;;
81056;SDS011;70563;50.084;14.468;2023-12-20T02:17:24;8.60;;;4.70;;
81056;SDS011;70563;50.084;14.468;2023-12-20T02:19:50;5.95;;;3.83;;
81056;SDS011;70563;50.084;14.468;2023-12-20T02:22:16;6.50;;;4.03;;
81056;SDS011;70563;50.084;14.468;2023-12-20T02:24:41;5.20;;;3.53;;
81056;SDS011;70563;50.084;14.468;2023-12-20T02:27:07;8.63;;;3.97;;
81056;SDS011;70563;50.084;14.468;2023-12-20T02:29:33;11.52;;;4.72;;
81056;SDS011;70563;50.084;14.468;2023-12-20T02:31:59;7.38;;;4.68;;
81056;SDS011;70563;50.084;14.468;2023-12-20T02:34:25;6.90;;;4.63;;
81056;SDS011;70563;50.084;14.468;2023-12-20T02:36:50;7.05;;;4.40;;
81056;SDS011;70563;50.084;14.468;2023-12-20T02:39:16;6.68;;;4.03;;
81056;SDS011;70563;50.084;14.468;2023-12-20T02:41:41;6.80;;;4.53;;
81056;SDS011;70563;50.084;14.468;2023-12-20T02:44:07;9.15;;;4.60;;
81056;SDS011;70563;50.084;14.468;2023-12-20T02:46:32;6.47;;;3.95;;
81056;SDS011;70563;50.084;14.468;2023-12-20T02:48:57;7.53;;;4.43;;
81056;SDS011;70563;50.084;14.468;2023-12-20T02:51:23;5.63;;;3.72;;
81056;SDS011;70563;50.084;14.468;2023-12-20T02:53:48;9.70;;;4.78;;
81056;SDS011;70563;50.084;14.468;2023-12-20T02:56:13;6.03;;;4.15;;
81056;SDS011;70563;50.084;14.468;2023-12-20T02:58:39;6.28;;;3.85;;
81056;SDS011;70563;50.084;14.468;2023-12-20T03:01:05;5.68;;;4.40;;
81056;SDS011;70563;50.084;14.468;2023-12-20T03:03:31;11.15;;;4.47;;
81056;SDS011;70563;50.084;14.468;2023-12-20T03:05:56;7.93;;;4.60;;
81056;SDS011;70563;50.084;14.468;2023-12-20T03:08:22;7.53;;;3.92;;
81056;SDS011;70563;50.084;14.468;2023-12-20T03:10:47;6.80;;;4.28;;
81056;SDS011;70563;50.084;14.468;2023-12-20T03:13:12;5.43;;;4.53;;
81056;SDS011;70563;50.084;14.468;2023-12-20T03:15:38;6.10;;;4.30;;
81056;SDS011;70563;50.084;14.468;2023-12-20T03:18:03;7.00;;;3.75;;
81056;SDS011;70563;50.084;14.468;2023-12-20T03:20:29;8.77;;;4.13;;
81056;SDS011;70563;50.084;14.468;2023-12-20T03:22:58;6.25;;;3.40;;
81056;SDS011;70563;50.084;14.468;2023-12-20T03:25:23;5.40;;;3.72;;
81056;SDS011;70563;50.084;14.468;2023-12-20T03:27:48;4.68;;;3.35;;
81056;SDS011;70563;50.084;14.468;2023-12-20T03:30:14;7.13;;;4.55;;
81056;SDS011;70563;50.084;14.468;2023-12-20T03:32:39;6.00;;;4.32;;
81056;SDS011;70563;50.084;14.468;2023-12-20T03:35:05;4.45;;;2.80;;
81056;SDS011;70563;50.084;14.468;2023-12-20T03:37:31;5.72;;;3.63;;
81056;SDS011;70563;50.084;14.468;2023-12-20T03:39:56;4.68;;;3.00;;
81056;SDS011;70563;50.084;14.468;2023-12-20T03:42:21;5.60;;;3.72;;
81056;SDS011;70563;50.084;14.468;2023-12-20T03:44:47;6.05;;;3.13;;
81056;SDS011;70563;50.084;14.468;2023-12-20T03:47:12;5.65;;;3.60;;
81056;SDS011;70563;50.084;14.468;2023-12-20T03:49:37;5.82;;;3.63;;
81056;SDS011;70563;50.084;14.468;2023-12-20T03:52:03;4.22;;;3.10;;
81056;SDS011;70563;50.084;14.468;2023-12-20T03:54:29;5.72;;;2.95;;
81056;SDS011;70563;50.084;14.468;2023-12-20T03:56:55;5.75;;;4.10;;
81056;SDS011;70563;50.084;14.468;2023-12-20T03:59:20;6.50;;;3.30;;
81056;SDS011;70563;50.084;14.468;2023-12-20T04:01:45;4.47;;;2.72;;
81056;SDS011;70563;50.084;14.468;2023-12-20T04:04:11;5.00;;;3.40;;
81056;SDS011;70563;50.084;14.468;2023-12-20T04:06:37;4.68;;;2.83;;
81056;SDS011;70563;50.084;14.468;2023-12-20T04:09:03;4.13;;;3.15;;
81056;SDS011;70563;50.084;14.468;2023-12-20T04:11:28;4.35;;;2.88;;
81056;SDS011;70563;50.084;14.468;2023-12-20T04:13:53;3.67;;;2.65;;
81056;SDS011;70563;50.084;14.468;2023-12-20T04:16:19;4.03;;;3.10;;
81056;SDS011;70563;50.084;14.468;2023-12-20T04:18:44;4.47;;;2.58;;
81056;SDS011;70563;50.084;14.468;2023-12-20T04:21:10;2.72;;;2.13;;
81056;SDS011;70563;50.084;14.468;2023-12-20T04:23:35;3.90;;;2.08;;
81056;SDS011;70563;50.084;14.468;2023-12-20T04:26:01;3.22;;;2.70;;
81056;SDS011;70563;50.084;14.468;2023-12-20T04:28:26;3.47;;;2.30;;
81056;SDS011;70563;50.084;14.468;2023-12-20T04:30:51;2.80;;;1.90;;
81056;SDS011;70563;50.084;14.468;2023-12-20T04:33:17;2.67;;;1.75;;
81056;SDS011;70563;50.084;14.468;2023-12-20T04:35:42;3.67;;;2.30;;
81056;SDS011;70563;50.084;14.468;2023-12-20T04:38:08;2.38;;;1.65;;
81056;SDS011;70563;50.084;14.468;2023-12-20T04:40:34;3.38;;;2.30;;
81056;SDS011;70563;50.084;14.468;2023-12-20T04:42:59;2.95;;;1.70;;
81056;SDS011;70563;50.084;14.468;2023-12-20T04:45:25;2.92;;;2.05;;
81056;SDS011;70563;50.084;14.468;2023-12-20T04:47:51;3.58;;;2.38;;
81056;SDS011;70563;50.084;14.468;2023-12-20T04:50:16;2.55;;;2.15;;
81056;SDS011;70563;50.084;14.468;2023-12-20T04:52:42;4.28;;;2.42;;
81056;SDS011;70563;50.084;14.468;2023-12-20T04:55:07;2.95;;;2.20;;
81056;SDS011;70563;50.084;14.468;2023-12-20T04:57:34;3.28;;;2.03;;
81056;SDS011;70563;50.084;14.468;2023-12-20T04:59:59;3.08;;;2.35;;
81056;SDS011;70563;50.084;14.468;2023-12-20T05:02:25;3.58;;;2.10;;
81056;SDS011;70563;50.084;14.468;2023-12-20T05:04:50;4.10;;;2.80;;
81056;SDS011;70563;50.084;14.468;2023-12-20T05:07:16;3.38;;;1.70;;
81056;SDS011;70563;50.084;14.468;2023-12-20T05:09:41;4.28;;;2.50;;
81056;SDS011;70563;50.084;14.468;2023-12-20T05:12:06;4.18;;;2.67;;
81056;SDS011;70563;50.084;14.468;2023-12-20T05:14:32;3.72;;;2.42;;
81056;SDS011;70563;50.084;14.468;2023-12-20T05:16:57;4.15;;;2.83;;
81056;SDS011;70563;50.084;14.468;2023-12-20T05:19:23;4.55;;;2.38;;
81056;SDS011;70563;50.084;14.468;2023-12-20T05:21:49;5.45;;;2.78;;
81056;SDS011;70563;50.084;14.468;2023-12-20T05:24:14;4.85;;;2.95;;
81056;SDS011;70563;50.084;14.468;2023-12-20T05:26:39;5.85;;;3.28;;
81056;SDS011;70563;50.084;14.468;2023-12-20T05:29:05;5.72;;;3.03;;
81056;SDS011;70563;50.084;14.468;2023-12-20T05:31:31;4.15;;;2.88;;
81056;SDS011;70563;50.084;14.468;2023-12-20T05:33:56;5.28;;;2.55;;
81056;SDS011;70563;50.084;14.468;2023-12-20T05:36:22;4.65;;;2.90;;
81056;SDS011;70563;50.084;14.468;2023-12-20T05:38:47;4.97;;;3.05;;
81056;SDS011;70563;50.084;14.468;2023-12-20T05:41:13;4.65;;;3.17;;
81056;SDS011;70563;50.084;14.468;2023-12-20T05:43:38;3.35;;;2.35;;
81056;SDS011;70563;50.084;14.468;2023-12-20T05:46:04;3.42;;;2.63;;
81056;SDS011;70563;50.084;14.468;2023-12-20T05:48:29;6.20;;;3.35;;
81056;SDS011;70563;50.084;14.468;2023-12-20T05:50:55;5.22;;;2.90;;
81056;SDS011;70563;50.084;14.468;2023-12-20T05:53:20;4.80;;;2.97;;
81056;SDS011;70563;50.084;14.468;2023-12-20T05:55:45;3.70;;;2.45;;
81056;SDS011;70563;50.084;14.468;2023-12-20T05:58:11;4.32;;;2.58;;
81056;SDS011;70563;50.084;14.468;2023-12-20T06:00:36;3.97;;;2.17;;
81056;SDS011;70563;50.084;14.468;2023-12-20T06:03:02;3.42;;;2.45;;
81056;SDS011;70563;50.084;14.468;2023-12-20T06:05:29;5.05;;;2.63;;
81056;SDS011;70563;50.084;14.468;2023-12-20T06:07:55;4.70;;;2.83;;
81056;SDS011;70563;50.084;14.468;2023-12-20T06:10:22;5.43;;;2.65;;
81056;SDS011;70563;50.084;14.468;2023-12-20T06:12:48;4.53;;;2.47;;
81056;SDS011;70563;50.084;14.468;2023-12-20T06:15:15;4.25;;;2.30;;
81056;SDS011;70563;50.084;14.468;2023-12-20T06:17:40;3.55;;;2.60;;
81056;SDS011;70563;50.084;14.468;2023-12-20T06:20:06;3.90;;;2.30;;
81056;SDS011;70563;50.084;14.468;2023-12-20T06:22:33;4.05;;;2.45;;
81056;SDS011;70563;50.084;14.468;2023-12-20T06:24:59;3.22;;;2.35;;
81056;SDS011;70563;50.084;14.468;2023-12-20T06:27:24;3.97;;;2.53;;
81056;SDS011;70563;50.084;14.468;2023-12-20T06:29:50;2.20;;;1.52;;
81056;SDS011;70563;50.084;14.468;2023-12-20T06:32:15;2.88;;;2.08;;
81056;SDS011;70563;50.084;14.468;2023-12-20T06:34:40;3.47;;;2.20;;
81056;SDS011;70563;50.084;14.468;2023-12-20T06:37:06;4.93;;;2.30;;
81056;SDS011;70563;50.084;14.468;2023-12-20T06:39:31;3.05;;;2.55;;
81056;SDS011;70563;50.084;14.468;2023-12-20T06:41:58;3.13;;;1.92;;
81056;SDS011;70563;50.084;14.468;2023-12-20T06:44:24;3.08;;;1.90;;
81056;SDS011;70563;50.084;14.468;2023-12-20T06:46:49;3.15;;;2.03;;
81056;SDS011;70563;50.084;14.468;2023-12-20T06:49:15;3.10;;;2.20;;
81056;SDS011;70563;50.084;14.468;2023-12-20T06:51:40;3.97;;;2.00;;
81056;SDS011;70563;50.084;14.468;2023-12-20T06:54:06;3.20;;;1.70;;
81056;SDS011;70563;50.084;14.468;2023-12-20T06:56:32;3.58;;;2.10;;
81056;SDS011;70563;50.084;14.468;2023-12-20T06:58:57;3.08;;;2.00;;
81056;SDS011;70563;50.084;14.468;2023-12-20T07:01:22;2.22;;;1.77;;
81056;SDS011;70563;50.084;14.468;2023-12-20T07:03:48;2.05;;;1.52;;
81056;SDS011;70563;50.084;14.468;2023-12-20T07:06:13;4.55;;;2.40;;
81056;SDS011;70563;50.084;14.468;2023-12-20T07:08:41;3.10;;;1.83;;
81056;SDS011;70563;50.084;14.468;2023-12-20T07:11:06;2.88;;;1.48;;
81056;SDS011;70563;50.084;14.468;2023-12-20T07:13:32;2.08;;;1.50;;
81056;SDS011;70563;50.084;14.468;2023-12-20T07:15:57;2.40;;;1.63;;
81056;SDS011;70563;50.084;14.468;2023-12-20T07:18:23;2.17;;;1.60;;
81056;SDS011;70563;50.084;14.468;2023-12-20T07:20:48;1.65;;;1.30;;
81056;SDS011;70563;50.084;14.468;2023-12-20T07:23:14;2.97;;;1.58;;
81056;SDS011;70563;50.084;14.468;2023-12-20T07:25:39;2.88;;;1.38;;
81056;SDS011;70563;50.084;14.468;2023-12-20T07:28:05;1.70;;;1.10;;
81056;SDS011;70563;50.084;14.468;2023-12-20T07:30:30;1.80;;;1.08;;
81056;SDS011;70563;50.084;14.468;2023-12-20T07:32:56;3.08;;;1.50;;
81056;SDS011;70563;50.084;14.468;2023-12-20T07:35:22;1.90;;;1.23;;
81056;SDS011;70563;50.084;14.468;2023-12-20T07:37:48;2.15;;;1.30;;
81056;SDS011;70563;50.084;14.468;2023-12-20T07:40:13;2.33;;;1.10;;
81056;SDS011;70563;50.084;14.468;2023-12-20T07:42:41;1.67;;;1.30;;
81056;SDS011;70563;50.084;14.468;2023-12-20T07:45:07;2.97;;;1.83;;
81056;SDS011;70563;50.084;14.468;2023-12-20T07:47:33;1.52;;;1.17;;
81056;SDS011;70563;50.084;14.468;2023-12-20T07:49:58;1.30;;;1.00;;
81056;SDS011;70563;50.084;14.468;2023-12-20T07:52:23;1.90;;;1.10;;
81056;SDS011;70563;50.084;14.468;2023-12-20T07:54:49;1.90;;;1.20;;
81056;SDS011;70563;50.084;14.468;2023-12-20T07:57:14;2.83;;;1.42;;
81056;SDS011;70563;50.084;14.468;2023-12-20T07:59:39;2.22;;;1.13;;
81056;SDS011;70563;50.084;14.468;2023-12-20T08:02:05;1.30;;;0.80;;
81056;SDS011;70563;50.084;14.468;2023-12-20T08:04:31;2.65;;;1.38;;
81056;SDS011;70563;50.084;14.468;2023-12-20T08:06:57;1.45;;;1.17;;
81056;SDS011;70563;50.084;14.468;2023-12-20T08:09:23;1.98;;;1.15;;
81056;SDS011;70563;50.084;14.468;2023-12-20T08:11:48;0.95;;;0.73;;
81056;SDS011;70563;50.084;14.468;2023-12-20T08:14:15;1.90;;;1.30;;
81056;SDS011;70563;50.084;14.468;2023-12-20T08:16:41;1.92;;;1.10;;
81056;SDS011;70563;50.084;14.468;2023-12-20T08:19:06;1.98;;;0.93;;
81056;SDS011;70563;50.084;14.468;2023-12-20T08:21:31;1.08;;;0.93;;
81056;SDS011;70563;50.084;14.468;2023-12-20T08:23:57;1.58;;;1.13;;
81056;SDS011;70563;50.084;14.468;2023-12-20T08:26:22;1.25;;;0.85;;
81056;SDS011;70563;50.084;14.468;2023-12-20T08:28:49;2.80;;;1.65;;
81056;SDS011;70563;50.084;14.468;2023-12-20T08:31:15;3.25;;;1.02;;
81056;SDS011;70563;50.084;14.468;2023-12-20T08:33:43;1.42;;;0.88;;
81056;SDS011;70563;50.084;14.468;2023-12-20T08:36:09;1.33;;;0.98;;
81056;SDS011;70563;50.084;14.468;2023-12-20T08:38:34;3.15;;;1.17;;
81056;SDS011;70563;50.084;14.468;2023-12-20T08:41:00;1.17;;;0.80;;
81056;SDS011;70563;50.084;14.468;2023-12-20T08:43:26;1.52;;;1.00;;
81056;SDS011;70563;50.084;14.468;2023-12-20T08:45:51;1.63;;;0.80;;
81056;SDS011;70563;50.084;14.468;2023-12-20T08:48:17;1.67;;;0.90;;
81056;SDS011;70563;50.084;14.468;2023-12-20T08:50:42;0.90;;;0.60;;
81056;SDS011;70563;50.084;14.468;2023-12-20T08:53:08;3.80;;;1.10;;
81056;SDS011;70563;50.084;14.468;2023-12-20T08:55:34;2.33;;;1.35;;
81056;SDS011;70563;50.084;14.468;2023-12-20T08:57:59;1.10;;;0.70;;
81056;SDS011;70563;50.084;14.468;2023-12-20T09:00:24;2.08;;;0.82;;
81056;SDS011;70563;50.084;14.468;2023-12-20T09:02:52;1.48;;;0.98;;
81056;SDS011;70563;50.084;14.468;2023-12-20T09:05:18;1.60;;;0.90;;
81056;SDS011;70563;50.084;14.468;2023-12-20T09:07:43;1.30;;;0.77;;
81056;SDS011;70563;50.084;14.468;2023-12-20T09:10:09;1.52;;;0.77;;
81056;SDS011;70563;50.084;14.468;2023-12-20T09:12:34;1.90;;;1.05;;
81056;SDS011;70563;50.084;14.468;2023-12-20T09:15:00;4.45;;;0.90;;
81056;SDS011;70563;50.084;14.468;2023-12-20T09:17:27;1.42;;;0.60;;
81056;SDS011;70563;50.084;14.468;2023-12-20T09:19:53;1.30;;;0.70;;
81056;SDS011;70563;50.084;14.468;2023-12-20T09:22:19;2.00;;;1.20;;
81056;SDS011;70563;50.084;14.468;2023-12-20T09:24:44;2.55;;;1.05;;
81056;SDS011;70563;50.084;14.468;2023-12-20T09:27:10;1.35;;;0.80;;
81056;SDS011;70563;50.084;14.468;2023-12-20T09:29:35;1.55;;;0.95;;
81056;SDS011;70563;50.084;14.468;2023-12-20T09:32:00;4.60;;;1.40;;
81056;SDS011;70563;50.084;14.468;2023-12-20T09:34:26;3.13;;;1.10;;
81056;SDS011;70563;50.084;14.468;2023-12-20T09:36:52;3.55;;;1.48;;
81056;SDS011;70563;50.084;14.468;2023-12-20T09:39:18;2.95;;;1.25;;
81056;SDS011;70563;50.084;14.468;2023-12-20T09:42:06;2.05;;;1.17;;
81056;SDS011;70563;50.084;14.468;2023-12-20T09:44:32;3.38;;;1.10;;
81056;SDS011;70563;50.084;14.468;2023-12-20T09:47:00;2.85;;;1.40;;
81056;SDS011;70563;50.084;14.468;2023-12-20T09:49:27;3.47;;;1.92;;
81056;SDS011;70563;50.084;14.468;2023-12-20T09:51:53;2.22;;;1.50;;
81056;SDS011;70563;50.084;14.468;2023-12-20T09:54:19;1.92;;;0.90;;
81056;SDS011;70563;50.084;14.468;2023-12-20T09:56:46;5.05;;;1.58;;
81056;SDS011;70563;50.084;14.468;2023-12-20T09:59:12;1.38;;;0.90;;
81056;SDS011;70563;50.084;14.468;2023-12-20T10:01:39;1.35;;;1.00;;
81056;SDS011;70563;50.084;14.468;2023-12-20T10:04:06;1.27;;;1.15;;
81056;SDS011;70563;50.084;14.468;2023-12-20T10:06:35;2.08;;;1.27;;
81056;SDS011;70563;50.084;14.468;2023-12-20T10:09:01;2.60;;;1.17;;
81056;SDS011;70563;50.084;14.468;2023-12-20T10:11:26;0.52;;;0.52;;
81056;SDS011;70563;50.084;14.468;2023-12-20T10:13:58;1.05;;;0.63;;
81056;SDS011;70563;50.084;14.468;2023-12-20T10:16:25;1.90;;;0.98;;
81056;SDS011;70563;50.084;14.468;2023-12-20T10:18:52;1.10;;;0.80;;
81056;SDS011;70563;50.084;14.468;2023-12-20T10:21:18;0.90;;;0.70;;
81056;SDS011;70563;50.084;14.468;2023-12-20T10:23:44;1.65;;;0.82;;
81056;SDS011;70563;50.084;14.468;2023-12-20T10:26:10;0.75;;;0.75;;
81056;SDS011;70563;50.084;14.468;2023-12-20T10:28:44;1.33;;;0.80;;
81056;SDS011;70563;50.084;14.468;2023-12-20T10:31:09;0.60;;;0.50;;
81056;SDS011;70563;50.084;14.468;2023-12-20T10:33:35;1.75;;;1.10;;
81056;SDS011;70563;50.084;14.468;2023-12-20T10:36:00;0.82;;;0.65;;
81056;SDS011;70563;50.084;14.468;2023-12-20T10:38:25;1.25;;;1.00;;
81056;SDS011;70563;50.084;14.468;2023-12-20T10:40:54;0.70;;;0.70;;
81056;SDS011;70563;50.084;14.468;2023-12-20T10:43:24;1.02;;;0.50;;
81056;SDS011;70563;50.084;14.468;2023-12-20T10:45:51;0.65;;;0.60;;
81056;SDS011;70563;50.084;14.468;2023-12-20T10:48:17;1.60;;;0.90;;
81056;SDS011;70563;50.084;14.468;2023-12-20T10:50:43;1.25;;;0.65;;
81056;SDS011;70563;50.084;14.468;2023-12-20T10:53:10;0.65;;;0.52;;
81056;SDS011;70563;50.084;14.468;2023-12-20T10:55:37;1.45;;;1.00;;
81056;SDS011;70563;50.084;14.468;2023-12-20T10:58:08;1.17;;;0.80;;
81056;SDS011;70563;50.084;14.468;2023-12-20T11:00:39;1.23;;;0.70;;
81056;SDS011;70563;50.084;14.468;2023-12-20T11:03:08;1.65;;;0.68;;
81056;SDS011;70563;50.084;14.468;2023-12-20T11:05:42;1.58;;;0.98;;
81056;SDS011;70563;50.084;14.468;2023-12-20T11:10:50;1.77;;;0.90;;
81056;SDS011;70563;50.084;14.468;2023-12-20T11:13:29;1.25;;;0.55;;
81056;SDS011;70563;50.084;14.468;2023-12-20T11:16:02;1.63;;;1.10;;
81056;SDS011;70563;50.084;14.468;2023-12-20T11:18:28;1.80;;;0.90;;
81056;SDS011;70563;50.084;14.468;2023-12-20T11:20:55;2.28;;;0.75;;
81056;SDS011;70563;50.084;14.468;2023-12-20T11:23:25;3.13;;;1.00;;
81056;SDS011;70563;50.084;14.468;2023-12-20T11:25:55;0.98;;;0.88;;
81056;SDS011;70563;50.084;14.468;2023-12-20T11:28:24;2.55;;;0.90;;
81056;SDS011;70563;50.084;14.468;2023-12-20T11:30:53;2.60;;;1.17;;
81056;SDS011;70563;50.084;14.468;2023-12-20T11:33:23;3.05;;;0.90;;
81056;SDS011;70563;50.084;14.468;2023-12-20T11:35:51;1.00;;;0.70;;
81056;SDS011;70563;50.084;14.468;2023-12-20T11:38:17;1.55;;;0.93;;
81056;SDS011;70563;50.084;14.468;2023-12-20T11:40:44;2.08;;;0.88;;
81056;SDS011;70563;50.084;14.468;2023-12-20T11:43:28;2.03;;;1.00;;
81056;SDS011;70563;50.084;14.468;2023-12-20T11:45:54;2.03;;;1.33;;
81056;SDS011;70563;50.084;14.468;2023-12-20T11:48:20;2.20;;;1.20;;
81056;SDS011;70563;50.084;14.468;2023-12-20T11:50:46;2.63;;;1.23;;
81056;SDS011;70563;50.084;14.468;2023-12-20T11:53:11;2.10;;;1.13;;
81056;SDS011;70563;50.084;14.468;2023-12-20T11:55:37;2.08;;;1.20;;
81056;SDS011;70563;50.084;14.468;2023-12-20T11:58:02;2.92;;;1.30;;
81056;SDS011;70563;50.084;14.468;2023-12-20T12:00:28;2.50;;;1.30;;
81056;SDS011;70563;50.084;14.468;2023-12-20T12:02:57;1.25;;;0.80;;
81056;SDS011;70563;50.084;14.468;2023-12-20T12:05:23;2.25;;;1.38;;
81056;SDS011;70563;50.084;14.468;2023-12-20T12:07:49;2.20;;;1.75;;
81056;SDS011;70563;50.084;14.468;2023-12-20T12:10:14;1.63;;;1.00;;
81056;SDS011;70563;50.084;14.468;2023-12-20T12:12:39;3.60;;;1.10;;
81056;SDS011;70563;50.084;14.468;2023-12-20T12:15:05;3.05;;;1.27;;
81056;SDS011;70563;50.084;14.468;2023-12-20T12:17:31;1.67;;;1.10;;
81056;SDS011;70563;50.084;14.468;2023-12-20T12:20:03;2.67;;;1.50;;
81056;SDS011;70563;50.084;14.468;2023-12-20T12:22:30;1.70;;;1.13;;
81056;SDS011;70563;50.084;14.468;2023-12-20T12:24:58;1.52;;;1.05;;
81056;SDS011;70563;50.084;14.468;2023-12-20T12:27:26;2.97;;;1.33;;
81056;SDS011;70563;50.084;14.468;2023-12-20T12:30:02;2.10;;;1.13;;
81056;SDS011;70563;50.084;14.468;2023-12-20T12:32:29;2.42;;;1.10;;
81056;SDS011;70563;50.084;14.468;2023-12-20T12:34:54;3.50;;;1.33;;
81056;SDS011;70563;50.084;14.468;2023-12-20T12:37:20;2.50;;;1.35;;
81056;SDS011;70563;50.084;14.468;2023-12-20T12:39:48;3.08;;;1.30;;
81056;SDS011;70563;50.084;14.468;2023-12-20T12:42:14;2.78;;;1.30;;
81056;SDS011;70563;50.084;14.468;2023-12-20T12:44:39;2.75;;;1.70;;
81056;SDS011;70563;50.084;14.468;2023-12-20T12:47:05;2.25;;;1.45;;
81056;SDS011;70563;50.084;14.468;2023-12-20T12:49:31;4.43;;;1.90;;
81056;SDS011;70563;50.084;14.468;2023-12-20T12:51:57;4.43;;;1.38;;
81056;SDS011;70563;50.084;14.468;2023-12-20T12:54:23;3.25;;;1.73;;
81056;SDS011;70563;50.084;14.468;2023-12-20T12:56:49;1.30;;;0.82;;
81056;SDS011;70563;50.084;14.468;2023-12-20T12:59:15;1.42;;;1.02;;
81056;SDS011;70563;50.084;14.468;2023-12-20T13:01:41;2.00;;;0.98;;
81056;SDS011;70563;50.084;14.468;2023-12-20T13:04:06;1.98;;;0.98;;
81056;SDS011;70563;50.084;14.468;2023-12-20T13:06:35;2.17;;;1.15;;
81056;SDS011;70563;50.084;14.468;2023-12-20T13:09:05;2.30;;;1.40;;
81056;SDS011;70563;50.084;14.468;2023-12-20T13:11:31;3.45;;;1.00;;
81056;SDS011;70563;50.084;14.468;2023-12-20T13:13:57;2.25;;;1.13;;
81056;SDS011;70563;50.084;14.468;2023-12-20T13:16:25;2.33;;;1.20;;
81056;SDS011;70563;50.084;14.468;2023-12-20T13:18:50;2.17;;;1.33;;
81056;SDS011;70563;50.084;14.468;2023-12-20T13:21:15;3.03;;;1.45;;
81056;SDS011;70563;50.084;14.468;2023-12-20T13:23:41;2.53;;;1.50;;
81056;SDS011;70563;50.084;14.468;2023-12-20T13:26:07;2.83;;;1.15;;
81056;SDS011;70563;50.084;14.468;2023-12-20T13:28:33;3.22;;;1.58;;
81056;SDS011;70563;50.084;14.468;2023-12-20T13:30:58;1.65;;;1.20;;
81056;SDS011;70563;50.084;14.468;2023-12-20T13:33:23;2.40;;;1.33;;
81056;SDS011;70563;50.084;14.468;2023-12-20T13:35:49;3.15;;;1.38;;
81056;SDS011;70563;50.084;14.468;2023-12-20T13:38:14;2.97;;;1.50;;
81056;SDS011;70563;50.084;14.468;2023-12-20T13:40:40;1.35;;;0.80;;
81056;SDS011;70563;50.084;14.468;2023-12-20T13:43:05;2.22;;;1.45;;
81056;SDS011;70563;50.084;14.468;2023-12-20T13:45:31;1.90;;;1.17;;
81056;SDS011;70563;50.084;14.468;2023-12-20T13:47:56;1.67;;;0.82;;
81056;SDS011;70563;50.084;14.468;2023-12-20T13:50:23;5.22;;;1.38;;
81056;SDS011;70563;50.084;14.468;2023-12-20T13:52:49;2.25;;;1.10;;
81056;SDS011;70563;50.084;14.468;2023-12-20T13:55:14;4.47;;;1.27;;
81056;SDS011;70563;50.084;14.468;2023-12-20T13:57:40;1.08;;;0.98;;
81056;SDS011;70563;50.084;14.468;2023-12-20T14:00:06;2.40;;;0.73;;
81056;SDS011;70563;50.084;14.468;2023-12-20T14:02:39;1.42;;;0.98;;
81056;SDS011;70563;50.084;14.468;2023-12-20T14:05:05;1.20;;;1.08;;
81056;SDS011;70563;50.084;14.468;2023-12-20T14:07:31;3.90;;;1.30;;
81056;SDS011;70563;50.084;14.468;2023-12-20T14:09:56;3.72;;;1.55;;
81056;SDS011;70563;50.084;14.468;2023-12-20T14:12:22;2.55;;;1.02;;
81056;SDS011;70563;50.084;14.468;2023-12-20T14:14:47;2.25;;;1.25;;
81056;SDS011;70563;50.084;14.468;2023-12-20T14:17:12;1.95;;;1.17;;
81056;SDS011;70563;50.084;14.468;2023-12-20T14:19:38;2.15;;;1.23;;
81056;SDS011;70563;50.084;14.468;2023-12-20T14:22:04;2.55;;;1.40;;
81056;SDS011;70563;50.084;14.468;2023-12-20T14:24:30;3.30;;;1.20;;
81056;SDS011;70563;50.084;14.468;2023-12-20T14:26:55;1.48;;;0.75;;
81056;SDS011;70563;50.084;14.468;2023-12-20T14:29:20;4.80;;;0.82;;